createdAt,value
2022-09-05T00:01:58.774Z,8.75
2022-09-05T00:05:29.584Z,4.35
2022-09-05T00:09:15.388Z,6.40
2022-09-05T00:12:40.752Z,3.65
2022-09-05T00:16:18.092Z,6.97
2022-09-05T00:24:20.227Z,4.47
2022-09-05T00:24:29.816Z,8.45
2022-09-05T00:28:08.829Z,6.00
2022-09-05T00:32:12.617Z,6.57
2022-09-05T00:35:51.546Z,8.05
2022-09-05T00:39:22.525Z,6.28
2022-09-05T00:42:45.564Z,7.15
2022-09-05T00:46:34.317Z,5.10
2022-09-05T00:50:27.856Z,4.05
2022-09-05T00:54:01.708Z,5.47
2022-09-05T00:57:50.221Z,4.75
2022-09-05T01:01:59.140Z,4.88
2022-09-05T01:05:45.859Z,4.20
2022-09-05T01:09:16.434Z,3.95
2022-09-05T01:12:53.977Z,7.47
2022-09-05T01:16:24.300Z,6.40
2022-09-05T01:20:04.564Z,8.57
2022-09-05T01:24:17.451Z,7.10
2022-09-05T01:29:17.657Z,6.90
2022-09-05T01:32:38.302Z,6.90
2022-09-05T01:36:26.091Z,5.30
2022-09-05T01:40:12.589Z,5.10
2022-09-05T01:43:56.147Z,3.50
2022-09-05T01:47:29.507Z,6.28
2022-09-05T01:51:29.153Z,5.97
2022-09-05T01:55:31.198Z,7.38
2022-09-05T01:59:09.956Z,7.35
2022-09-05T02:02:50.096Z,4.53
2022-09-05T02:06:21.415Z,8.18
2022-09-05T02:10:07.251Z,7.97
2022-09-05T02:13:35.217Z,10.00
2022-09-05T02:17:23.382Z,5.70
2022-09-05T02:21:00.984Z,5.72
2022-09-05T02:24:22.809Z,7.28
2022-09-05T02:28:04.560Z,6.10
2022-09-05T02:31:49.512Z,6.07
2022-09-05T02:35:13.846Z,4.95
2022-09-05T02:42:47.769Z,4.70
2022-09-05T02:45:09.523Z,4.65
2022-09-05T02:47:03.232Z,6.50
2022-09-05T02:57:25.273Z,5.55
2022-09-05T02:57:41.755Z,9.23
2022-09-05T02:59:10.078Z,5.43
2022-09-05T03:02:54.296Z,6.70
2022-09-05T03:06:34.980Z,6.63
2022-09-05T03:10:53.285Z,4.63
2022-09-05T03:14:44.497Z,7.75
2022-09-05T03:18:20.837Z,7.47
2022-09-05T03:22:14.346Z,5.72
2022-09-05T03:25:55.006Z,6.43
2022-09-05T03:29:42.169Z,5.78
2022-09-05T03:33:22.838Z,7.68
2022-09-05T03:36:56.800Z,5.55
2022-09-05T03:40:44.189Z,7.50
2022-09-05T03:44:15.038Z,8.20
2022-09-05T03:48:13.442Z,5.82
2022-09-05T03:57:10.997Z,5.43
2022-09-05T03:57:17.816Z,6.00
2022-09-05T04:00:09.227Z,6.43
2022-09-05T04:08:15.465Z,4.82
2022-09-05T04:08:40.944Z,6.00
2022-09-05T04:11:32.020Z,6.78
2022-09-05T04:15:28.894Z,5.57
2022-09-05T04:18:56.136Z,6.43
2022-09-05T04:22:21.164Z,5.53
2022-09-05T04:25:55.881Z,10.35
2022-09-05T04:29:51.844Z,6.00
2022-09-05T04:33:42.329Z,8.50
2022-09-05T04:37:07.450Z,12.18
2022-09-05T04:40:40.424Z,6.15
2022-09-05T04:44:14.640Z,5.82
2022-09-05T04:47:42.053Z,6.45
2022-09-05T04:51:31.945Z,8.32
2022-09-05T04:55:01.153Z,8.88
2022-09-05T04:58:27.546Z,6.80
2022-09-05T05:06:15.299Z,7.10
2022-09-05T05:06:44.425Z,9.82
2022-09-05T05:11:10.228Z,8.75
2022-09-05T05:17:55.480Z,7.30
2022-09-05T05:18:36.700Z,8.95
2022-09-05T05:22:05.224Z,12.45
2022-09-05T05:25:28.042Z,11.52
2022-09-05T05:29:10.287Z,8.13
2022-09-05T05:32:46.645Z,9.68
2022-09-05T05:36:16.639Z,8.52
2022-09-05T05:39:44.714Z,7.97
2022-09-05T05:43:16.878Z,7.72
2022-09-05T05:46:40.920Z,7.88
2022-09-05T05:50:02.589Z,12.60
2022-09-05T05:53:44.437Z,8.82
2022-09-05T05:57:12.580Z,6.50
2022-09-05T06:00:54.693Z,10.82
2022-09-05T06:05:00.723Z,8.02
2022-09-05T06:12:01.165Z,13.88
2022-09-05T06:15:00.479Z,13.02
2022-09-05T06:16:42.881Z,9.63
2022-09-05T06:22:04.550Z,15.05
2022-09-05T06:24:27.983Z,10.55
2022-09-05T06:28:19.099Z,10.02
2022-09-05T06:31:58.655Z,9.52
2022-09-05T06:35:20.591Z,14.65
2022-09-05T06:39:03.730Z,8.45
2022-09-05T06:42:44.131Z,7.35
2022-09-05T06:46:55.196Z,9.00
2022-09-05T06:50:23.985Z,10.73
2022-09-05T06:54:22.581Z,14.48
2022-09-05T06:58:37.450Z,13.80
2022-09-05T07:02:17.356Z,18.58
2022-09-05T07:05:50.474Z,11.40
2022-09-05T07:09:33.629Z,15.48
2022-09-05T07:13:22.180Z,16.65
2022-09-05T07:16:58.114Z,9.75
2022-09-05T07:20:34.051Z,13.07
2022-09-05T07:24:53.998Z,8.20
2022-09-05T07:28:28.290Z,6.75
2022-09-05T07:31:55.912Z,8.38
2022-09-05T07:35:33.228Z,6.05
2022-09-05T07:39:27.384Z,15.52
2022-09-05T07:43:09.821Z,15.25
2022-09-05T07:46:37.354Z,13.65
2022-09-05T07:51:27.932Z,7.57
2022-09-05T07:57:01.481Z,3.13
2022-09-05T07:57:52.076Z,5.68
2022-09-05T08:01:16.677Z,4.50
2022-09-05T08:04:41.689Z,14.77
2022-09-05T08:08:08.973Z,44.58
2022-09-05T08:11:35.137Z,1157.10
2022-09-05T08:15:14.153Z,1490.47
2022-09-05T08:18:50.445Z,1736.90
2022-09-05T08:22:24.646Z,1999.90
2022-09-05T08:26:00.639Z,1999.90
2022-09-05T08:29:40.304Z,1999.90
2022-09-05T08:33:12.639Z,1999.90
2022-09-05T08:36:41.680Z,1999.90
2022-09-05T08:40:26.367Z,1999.90
2022-09-05T08:46:36.459Z,1999.90
2022-09-05T08:48:07.065Z,425.63
2022-09-05T08:51:44.776Z,657.00
2022-09-05T08:55:44.281Z,825.47
2022-09-05T08:59:32.483Z,797.97
2022-09-05T09:03:25.790Z,847.65
2022-09-05T09:07:47.285Z,1057.00
2022-09-05T09:11:24.906Z,313.45
2022-09-05T09:14:55.296Z,168.75
2022-09-05T09:18:22.212Z,51.88
2022-09-05T09:22:15.310Z,13.82
2022-09-05T09:25:39.622Z,3.90
2022-09-05T09:29:07.589Z,2.38
2022-09-05T09:32:30.453Z,2.67
2022-09-05T09:36:23.595Z,4.65
2022-09-05T09:40:22.226Z,2.05
2022-09-05T09:44:23.626Z,1.80
2022-09-05T09:48:22.168Z,3.88
2022-09-05T09:52:07.303Z,5.18
2022-09-05T09:56:20.812Z,3.28
2022-09-05T10:00:04.080Z,4.07
2022-09-05T10:10:40.223Z,2.17
2022-09-05T10:10:43.935Z,3.20
2022-09-05T10:11:55.672Z,2.50
2022-09-05T10:15:38.462Z,5.07
2022-09-05T10:23:33.005Z,1.85
2022-09-05T10:27:22.990Z,4.05
2022-09-05T10:33:25.732Z,5.45
2022-09-05T10:35:06.164Z,2.70
2022-09-05T10:38:46.313Z,2.53
2022-09-05T10:42:39.864Z,3.65
2022-09-05T10:46:48.929Z,3.25
2022-09-05T10:50:21.836Z,2.17
2022-09-05T10:54:02.448Z,2.92
2022-09-05T10:57:56.278Z,2.53
2022-09-05T11:02:27.155Z,2.95
2022-09-05T11:05:26.590Z,2.63
2022-09-05T11:09:16.777Z,2.53
2022-09-05T11:13:00.174Z,3.15
2022-09-05T11:16:51.856Z,1.35
2022-09-05T11:20:26.122Z,7.53
2022-09-05T11:24:19.200Z,1.50
2022-09-05T11:27:45.279Z,4.95
2022-09-05T11:31:15.575Z,3.85
2022-09-05T11:39:51.297Z,4.35
2022-09-05T11:40:24.956Z,8.32
2022-09-05T11:44:24.693Z,2.90
2022-09-05T11:47:57.216Z,4.28
2022-09-05T11:51:36.420Z,5.47
2022-09-05T11:55:35.898Z,7.03
2022-09-05T11:59:06.646Z,3.53
2022-09-05T12:02:49.528Z,2.47
2022-09-05T12:06:31.002Z,4.45
2022-09-05T12:10:46.725Z,2.03
2022-09-05T12:14:25.576Z,3.80
2022-09-05T12:18:24.224Z,2.88
2022-09-05T12:22:08.654Z,2.63
2022-09-05T12:27:42.197Z,4.55
2022-09-05T12:36:05.481Z,2.97
2022-09-05T12:40:54.771Z,2.17
2022-09-05T12:41:41.893Z,2.70
2022-09-05T12:41:43.898Z,4.43
2022-09-05T12:45:15.877Z,3.95
2022-09-05T12:48:54.781Z,2.72
2022-09-05T12:52:33.800Z,12.10
2022-09-05T12:57:46.304Z,3.67
2022-09-05T13:03:11.189Z,2.17
2022-09-05T13:03:31.620Z,2.63
2022-09-05T13:07:02.386Z,3.60
2022-09-05T13:14:08.932Z,4.38
2022-09-05T13:15:14.138Z,4.68
2022-09-05T13:18:41.488Z,5.93
2022-09-05T13:22:05.216Z,4.75
2022-09-05T13:25:29.556Z,1.88
2022-09-05T13:29:09.950Z,2.00
2022-09-05T13:38:20.159Z,3.47
2022-09-05T13:38:20.681Z,2.15
2022-09-05T13:40:19.689Z,2.33
2022-09-05T13:43:41.829Z,5.35
2022-09-05T13:47:29.784Z,1.52
2022-09-05T13:50:54.979Z,3.10
2022-09-05T13:54:42.727Z,1.95
2022-09-05T13:58:07.286Z,2.33
2022-09-05T14:01:54.559Z,1.60
2022-09-05T14:05:49.720Z,4.38
2022-09-05T14:09:38.711Z,5.30
2022-09-05T14:13:04.473Z,5.05
2022-09-05T14:16:32.771Z,6.53
2022-09-05T14:20:14.457Z,1.52
2022-09-05T14:24:04.706Z,3.85
2022-09-05T14:27:32.241Z,2.03
2022-09-05T14:37:34.212Z,4.43
2022-09-05T14:37:46.367Z,2.45
2022-09-05T14:39:38.195Z,1.65
2022-09-05T14:43:13.920Z,2.45
2022-09-05T14:47:32.573Z,2.85
2022-09-05T14:51:05.362Z,2.38
2022-09-05T15:02:53.101Z,2.03
2022-09-05T15:02:54.610Z,1.98
2022-09-05T15:05:53.593Z,2.42
2022-09-05T15:12:14.703Z,1.38
2022-09-05T15:13:05.513Z,4.43
2022-09-05T15:16:28.709Z,3.20
2022-09-05T15:20:05.717Z,1.90
2022-09-05T15:23:32.566Z,2.63
2022-09-05T15:27:00.765Z,2.47
2022-09-05T15:30:35.895Z,3.25
2022-09-05T15:34:31.654Z,2.85
2022-09-05T15:37:53.518Z,2.55
2022-09-05T15:41:30.173Z,3.20
2022-09-05T15:45:09.673Z,2.97
2022-09-05T15:48:34.999Z,3.15
2022-09-05T15:52:20.882Z,3.00
2022-09-05T15:55:54.839Z,3.47
2022-09-05T15:59:28.232Z,7.20
2022-09-05T16:04:09.445Z,2.33
2022-09-05T16:10:36.591Z,1.40
2022-09-05T16:11:07.047Z,7.22
2022-09-05T16:14:27.260Z,3.97
2022-09-05T16:23:13.584Z,4.55
2022-09-05T16:23:29.888Z,4.22
2022-09-05T16:25:34.420Z,4.65
2022-09-05T16:29:06.240Z,3.88
2022-09-05T16:32:30.756Z,5.20
2022-09-05T16:36:16.274Z,2.75
2022-09-05T16:39:48.578Z,5.88
2022-09-05T16:43:20.443Z,4.65
2022-09-05T16:47:01.792Z,6.28
2022-09-05T16:50:40.936Z,4.15
2022-09-05T16:54:36.365Z,4.53
2022-09-05T16:58:14.418Z,4.35
2022-09-05T17:02:06.072Z,6.72
2022-09-05T17:05:43.428Z,2.67
2022-09-05T17:09:18.412Z,2.97
2022-09-05T17:12:41.192Z,4.85
2022-09-05T17:16:04.339Z,8.40
2022-09-05T17:19:32.034Z,4.93
2022-09-05T17:29:21.065Z,4.28
2022-09-05T17:29:24.830Z,5.43
2022-09-05T17:31:53.110Z,6.10
2022-09-05T17:35:26.526Z,3.33
2022-09-05T17:39:20.706Z,5.47
2022-09-05T17:43:05.315Z,3.20
2022-09-05T17:46:31.433Z,2.63
2022-09-05T17:50:15.119Z,2.65
2022-09-05T17:53:59.390Z,6.63
2022-09-05T17:57:27.133Z,4.72
2022-09-05T18:00:51.938Z,10.65
2022-09-05T18:04:50.292Z,9.30
2022-09-05T18:08:50.319Z,5.57
2022-09-05T18:13:13.120Z,7.45
2022-09-05T18:16:40.004Z,6.75
2022-09-05T18:20:27.911Z,7.38
2022-09-05T18:24:05.777Z,9.40
2022-09-05T18:28:05.168Z,7.88
2022-09-05T18:31:40.896Z,4.38
2022-09-05T18:35:37.628Z,9.38
2022-09-05T18:39:27.997Z,5.30
2022-09-05T18:42:52.657Z,6.65
2022-09-05T18:46:21.124Z,10.00
2022-09-05T18:50:26.423Z,7.78
2022-09-05T18:53:35.693Z,8.70
2022-09-05T18:57:26.939Z,7.80
2022-09-05T19:00:47.130Z,9.88
2022-09-05T19:04:40.591Z,11.82
2022-09-05T19:08:03.721Z,6.88
2022-09-05T19:11:42.339Z,9.20
2022-09-05T19:15:24.711Z,11.50
2022-09-05T19:19:05.719Z,11.07
2022-09-05T19:23:08.028Z,9.40
2022-09-05T19:26:11.232Z,8.70
2022-09-05T19:36:58.067Z,6.55
2022-09-05T19:37:08.547Z,7.75
2022-09-05T19:47:25.819Z,5.55
2022-09-05T19:47:39.125Z,5.97
2022-09-05T19:48:27.674Z,7.70
2022-09-05T19:51:49.665Z,6.95
2022-09-05T19:55:36.428Z,6.43
2022-09-05T19:58:58.325Z,6.82
2022-09-05T20:02:29.628Z,9.80
2022-09-05T20:05:51.574Z,7.28
2022-09-05T20:09:19.166Z,6.97
2022-09-05T20:12:41.165Z,5.47
2022-09-05T20:16:03.270Z,6.75
2022-09-05T20:19:34.097Z,5.03
2022-09-05T20:23:03.180Z,8.40
2022-09-05T20:26:29.278Z,5.85
2022-09-05T20:30:00.988Z,5.13
2022-09-05T20:33:26.804Z,4.88
2022-09-05T20:43:12.541Z,11.63
2022-09-05T20:43:23.806Z,4.53
2022-09-05T20:44:22.306Z,4.43
2022-09-05T20:54:06.259Z,8.45
2022-09-05T20:54:22.173Z,7.85
2022-09-05T20:55:40.439Z,4.38
2022-09-05T20:59:03.534Z,6.78
2022-09-05T21:02:33.157Z,5.95
2022-09-05T21:05:55.693Z,7.45
2022-09-05T21:09:29.161Z,5.40
2022-09-05T21:12:53.823Z,5.18
2022-09-05T21:16:21.583Z,6.22
2022-09-05T21:19:53.526Z,9.35
2022-09-05T21:23:35.301Z,5.22
2022-09-05T21:27:22.725Z,7.85
2022-09-05T21:30:45.269Z,9.13
2022-09-05T21:34:14.029Z,8.05
2022-09-05T21:37:36.436Z,6.22
2022-09-05T21:41:03.216Z,10.02
2022-09-05T21:47:33.596Z,5.93
2022-09-05T21:48:10.479Z,4.13
2022-09-05T21:51:33.726Z,9.50
2022-09-05T21:59:16.951Z,4.55
2022-09-05T21:59:36.926Z,3.30
2022-09-05T22:02:28.648Z,11.85
2022-09-05T22:05:52.141Z,11.02
2022-09-05T22:09:17.041Z,11.73
2022-09-05T22:12:39.377Z,597.97
2022-09-05T22:16:04.816Z,0.63
2022-09-05T22:19:36.824Z,1.02
2022-09-05T22:23:01.261Z,0.20
2022-09-05T22:26:23.237Z,2.25
2022-09-05T22:29:47.345Z,0.55
2022-09-05T22:33:12.926Z,0.38
2022-09-05T22:36:35.186Z,1.05
2022-09-05T22:39:57.137Z,4.35
2022-09-05T22:43:18.971Z,0.80
2022-09-05T22:46:40.792Z,0.88
2022-09-05T22:50:02.908Z,1.75
2022-09-05T22:53:25.809Z,0.13
2022-09-05T22:56:47.632Z,0.90
2022-09-05T23:00:10.868Z,0.17
2022-09-05T23:03:33.009Z,2.53
2022-09-05T23:06:54.916Z,5.05
2022-09-05T23:10:17.409Z,2.85
2022-09-05T23:13:40.207Z,0.80
2022-09-05T23:17:01.943Z,3.17
2022-09-05T23:20:26.957Z,0.50
2022-09-05T23:23:48.667Z,0.20
2022-09-05T23:27:10.413Z,0.40
2022-09-05T23:30:32.216Z,0.98
2022-09-05T23:33:57.832Z,5.38
2022-09-05T23:37:19.641Z,0.45
2022-09-05T23:40:41.492Z,0.17
2022-09-05T23:44:03.320Z,2.88
2022-09-05T23:47:25.135Z,0.30
2022-09-05T23:50:47.095Z,0.73
2022-09-05T23:54:08.853Z,0.85
2022-09-05T23:57:30.760Z,0.10
